Time;durP1;ratioP1;P1;durP2;ratioP2;P2;SDS_P1;SDS_P2;PMS_P1;PMS_P2;Temp;Humidity;BMP_temperature;BMP_pressure;BME280_temperature;BME280_humidity;BME280_pressure;Samples;Min_cycle;Max_cycle;Signal;HPM_P1;HPM_P2
2020/12/01 00:00:50;;;;;;;26.00;12.93;;;-2.20;99.90;;;;;;2088135;28;20200;-62
2020/12/01 00:01:52;;;;;;;27.70;13.60;;;-2.10;99.90;;;;;;2088362;28;20609;-61
2020/12/01 00:02:53;;;;;;;26.33;13.65;;;-2.00;99.90;;;;;;2088268;28;20249;-63
2020/12/01 00:03:53;;;;;;;26.40;13.33;;;-1.90;99.90;;;;;;2088224;28;20713;-63
2020/12/01 00:04:55;;;;;;;25.43;13.53;;;-1.70;99.90;;;;;;2088419;28;20178;-63
2020/12/01 00:05:56;;;;;;;25.58;14.27;;;-1.60;99.90;;;;;;2088429;28;20207;-62
2020/12/01 00:06:57;;;;;;;21.95;12.27;;;-1.60;99.90;;;;;;2088309;28;20262;-62
2020/12/01 00:07:57;;;;;;;26.60;12.80;;;-1.50;99.90;;;;;;2088091;28;20173;-63
2020/12/01 00:08:58;;;;;;;22.77;13.40;;;-1.50;99.90;;;;;;2088356;28;20188;-64
2020/12/01 00:09:59;;;;;;;26.70;14.00;;;-1.40;99.90;;;;;;2088254;28;20230;-63
2020/12/01 00:11:00;;;;;;;23.07;13.07;;;-1.40;99.90;;;;;;2088049;28;20269;-64
2020/12/01 00:12:00;;;;;;;24.83;12.60;;;-1.30;99.90;;;;;;2095887;28;20250;-63
2020/12/01 00:13:03;;;;;;;21.07;12.37;;;-1.30;99.90;;;;;;2095863;28;20195;-63
2020/12/01 00:14:04;;;;;;;24.40;12.02;;;-1.30;99.90;;;;;;2088151;28;20234;-63
2020/12/01 00:15:05;;;;;;;22.77;13.15;;;-1.20;99.90;;;;;;2088384;28;20186;-61
2020/12/01 00:16:10;;;;;;;23.17;12.03;;;-1.30;99.90;;;;;;2087596;28;20595;-63
2020/12/01 00:17:10;;;;;;;23.52;12.55;;;-1.30;99.90;;;;;;2087826;28;20281;-63
2020/12/01 00:18:11;;;;;;;21.77;12.13;;;-1.30;99.90;;;;;;2088310;28;20172;-63
2020/12/01 00:19:12;;;;;;;22.23;12.43;;;-1.30;99.90;;;;;;2080844;28;20691;-63
2020/12/01 00:20:17;;;;;;;21.17;12.85;;;-1.30;99.90;;;;;;2079984;28;20211;-63
2020/12/01 00:21:19;;;;;;;20.63;11.77;;;-1.20;99.90;;;;;;2079745;28;20181;-63
2020/12/01 00:22:20;;;;;;;21.65;11.65;;;-1.20;99.90;;;;;;2079898;28;20210;-63
2020/12/01 00:23:21;;;;;;;21.73;13.27;;;-1.20;99.90;;;;;;2080212;28;20181;-64
2020/12/01 00:24:21;;;;;;;20.37;12.10;;;-1.20;99.90;;;;;;2079843;28;20181;-64
2020/12/01 00:25:23;;;;;;;28.10;13.70;;;-1.20;99.90;;;;;;2080253;28;20550;-64
2020/12/01 00:26:23;;;;;;;24.65;14.27;;;-1.10;99.90;;;;;;2079956;28;20234;-64
2020/12/01 00:27:24;;;;;;;26.10;12.93;;;-1.10;99.90;;;;;;2080184;28;20502;-63
2020/12/01 00:28:25;;;;;;;25.00;13.67;;;-1.00;99.90;;;;;;2080039;28;20180;-63
2020/12/01 00:29:25;;;;;;;27.20;14.00;;;-1.00;99.90;;;;;;2080115;28;20644;-63
2020/12/01 00:30:26;;;;;;;22.83;13.00;;;-1.00;99.90;;;;;;2079780;28;20956;-64
2020/12/01 00:31:27;;;;;;;20.83;10.00;;;-1.00;99.90;;;;;;2079835;28;20666;-63
2020/12/01 00:32:28;;;;;;;23.93;13.23;;;-1.00;99.90;;;;;;2079871;28;20236;-63
2020/12/01 00:33:29;;;;;;;21.43;11.70;;;-0.90;99.90;;;;;;2080022;28;20184;-64
2020/12/01 00:34:30;;;;;;;26.40;13.52;;;-0.90;99.90;;;;;;2079962;28;20206;-63
2020/12/01 00:35:31;;;;;;;29.27;14.32;;;-0.90;99.90;;;;;;2079881;28;20203;-63
2020/12/01 00:36:32;;;;;;;28.83;14.13;;;-0.90;99.90;;;;;;2079973;28;20632;-63
2020/12/01 00:37:36;;;;;;;27.85;15.65;;;-1.00;99.90;;;;;;2080002;28;20178;-63
2020/12/01 00:38:37;;;;;;;25.55;14.07;;;-0.90;99.90;;;;;;2079262;28;20747;-63
2020/12/01 00:39:37;;;;;;;22.73;12.50;;;-0.90;99.90;;;;;;2079421;28;20251;-64
2020/12/01 00:40:38;;;;;;;24.90;13.50;;;-0.80;99.90;;;;;;2079949;28;20739;-64
2020/12/01 00:41:39;;;;;;;27.43;14.60;;;-0.70;99.90;;;;;;2079664;28;20306;-63
2020/12/01 00:42:40;;;;;;;25.00;13.65;;;-0.60;99.90;;;;;;2079763;28;20191;-63
2020/12/01 00:43:41;;;;;;;26.52;14.32;;;-0.70;99.90;;;;;;2079808;28;20183;-64
2020/12/01 00:44:41;;;;;;;20.17;10.70;;;-0.60;99.90;;;;;;2079889;28;20198;-64
2020/12/01 00:45:44;;;;;;;11.90;6.77;;;-0.50;99.90;;;;;;2080022;28;20176;-63
2020/12/01 00:46:45;;;;;;;17.85;9.98;;;-0.40;99.90;;;;;;2079712;28;20640;-63
2020/12/01 00:47:45;;;;;;;16.95;10.20;;;-0.30;99.90;;;;;;2079961;28;20254;-64
2020/12/01 00:48:46;;;;;;;18.27;10.80;;;-0.30;99.90;;;;;;2080067;28;20836;-64
2020/12/01 00:49:47;;;;;;;17.75;8.85;;;-0.30;99.90;;;;;;2079984;28;20259;-64
2020/12/01 00:50:48;;;;;;;13.77;8.00;;;-0.30;99.90;;;;;;2079866;28;20183;-64
2020/12/01 00:51:49;;;;;;;11.70;7.13;;;-0.20;99.90;;;;;;2079221;28;20187;-64
2020/12/01 00:52:50;;;;;;;14.50;6.90;;;-0.20;99.90;;;;;;2079546;28;20686;-63
2020/12/01 00:53:51;;;;;;;11.65;6.55;;;-0.10;99.90;;;;;;2079724;28;20180;-63
2020/12/01 00:54:52;;;;;;;10.20;5.80;;;0.00;99.90;;;;;;2079997;28;20211;-63
2020/12/01 00:55:53;;;;;;;12.43;7.30;;;0.10;99.90;;;;;;2071486;28;20415;-63
2020/12/01 00:56:57;;;;;;;11.38;6.07;;;0.10;99.90;;;;;;2063705;28;20541;-63
2020/12/01 00:57:58;;;;;;;7.97;4.95;;;0.20;99.90;;;;;;2063800;28;20654;-64
2020/12/01 00:58:59;;;;;;;9.17;5.00;;;0.20;99.90;;;;;;2063450;28;20173;-63
2020/12/01 01:00:00;;;;;;;10.70;6.23;;;0.30;99.90;;;;;;2071436;28;20542;-64
2020/12/01 01:01:01;;;;;;;9.27;5.33;;;0.40;99.90;;;;;;2079883;28;20639;-65
2020/12/01 01:02:01;;;;;;;15.37;8.57;;;0.40;99.90;;;;;;2080090;28;20187;-64
2020/12/01 01:03:02;;;;;;;17.97;11.07;;;0.50;99.90;;;;;;2079909;28;20665;-65
2020/12/01 01:04:03;;;;;;;15.50;8.73;;;0.40;99.90;;;;;;2080129;28;20371;-64
2020/12/01 01:05:05;;;;;;;25.57;13.67;;;0.40;99.90;;;;;;2080210;28;20176;-64
2020/12/01 01:06:12;;;;;;;21.48;11.45;;;0.40;99.90;;;;;;2079947;28;20176;-64
2020/12/01 01:07:12;;;;;;;21.85;11.75;;;0.50;99.90;;;;;;2080050;28;20180;-64
2020/12/01 01:08:13;;;;;;;19.07;10.87;;;0.50;99.90;;;;;;2080848;28;20184;-64
2020/12/01 01:09:15;;;;;;;16.70;9.02;;;0.50;99.90;;;;;;2081589;28;20208;-63
2020/12/01 01:10:25;;;;;;;13.25;7.90;;;0.50;99.90;;;;;;2081356;28;20282;-64
2020/12/01 01:11:29;;;;;;;24.23;11.30;;;0.50;99.90;;;;;;2081264;28;20276;-64
2020/12/01 01:12:29;;;;;;;18.88;10.68;;;0.50;99.90;;;;;;2081232;28;20192;-64
2020/12/01 01:13:30;;;;;;;17.20;9.90;;;0.60;99.90;;;;;;2081342;28;20179;-62
2020/12/01 01:14:31;;;;;;;19.60;10.37;;;0.60;99.90;;;;;;2081181;28;20180;-64
2020/12/01 01:15:34;;;;;;;17.57;10.77;;;0.40;99.90;;;;;;2088754;28;20288;-63
2020/12/01 01:16:39;;;;;;;20.27;10.57;;;0.50;99.90;;;;;;2088517;28;20338;-63
2020/12/01 01:17:39;;;;;;;22.42;10.95;;;0.60;99.90;;;;;;2080553;28;20731;-64
2020/12/01 01:18:40;;;;;;;22.57;12.43;;;0.60;99.90;;;;;;2080629;28;20184;-64
2020/12/01 01:19:42;;;;;;;24.17;12.57;;;0.70;99.90;;;;;;2081198;28;20177;-64
2020/12/01 01:20:42;;;;;;;22.65;11.30;;;0.70;99.90;;;;;;2081261;28;20177;-64
2020/12/01 01:21:47;;;;;;;16.77;9.33;;;0.60;99.90;;;;;;2081111;28;20180;-64
2020/12/01 01:22:47;;;;;;;19.50;9.55;;;0.70;99.90;;;;;;2081223;28;20228;-64
2020/12/01 01:23:48;;;;;;;24.27;12.23;;;0.70;99.90;;;;;;2081321;28;20172;-65
2020/12/01 01:24:49;;;;;;;26.47;13.63;;;0.70;99.90;;;;;;2081030;28;20173;-64
2020/12/01 01:25:50;;;;;;;32.03;14.80;;;0.70;99.90;;;;;;2081415;28;20196;-64
2020/12/01 01:26:53;;;;;;;23.98;12.13;;;0.70;99.90;;;;;;2081072;28;20222;-64
2020/12/01 01:27:54;;;;;;;24.83;12.18;;;0.70;99.90;;;;;;2081159;28;20259;-64
2020/12/01 01:28:55;;;;;;;26.83;12.23;;;0.60;99.90;;;;;;2088686;28;20607;-63
2020/12/01 01:29:55;;;;;;;22.47;11.30;;;0.70;99.90;;;;;;2088678;28;20285;-64
2020/12/01 01:30:56;;;;;;;24.40;11.23;;;0.70;99.90;;;;;;2080936;28;20297;-65
2020/12/01 01:31:57;;;;;;;12.77;6.50;;;0.80;99.90;;;;;;2081096;28;20177;-64
2020/12/01 01:32:58;;;;;;;10.32;5.10;;;0.90;99.90;;;;;;2081045;28;20193;-64
2020/12/01 01:33:59;;;;;;;11.27;6.15;;;0.80;99.90;;;;;;2081201;28;20177;-63
2020/12/01 01:34:59;;;;;;;10.67;5.27;;;0.80;99.90;;;;;;2081133;28;20176;-64
2020/12/01 01:36:00;;;;;;;6.93;4.00;;;0.90;99.90;;;;;;2081045;28;20177;-64
2020/12/01 01:37:04;;;;;;;8.47;4.00;;;0.90;99.90;;;;;;2081140;28;20540;-64
2020/12/01 01:38:07;;;;;;;7.63;3.80;;;1.00;99.90;;;;;;2080554;28;20214;-64
2020/12/01 01:39:08;;;;;;;6.35;3.45;;;1.00;99.90;;;;;;2080533;28;20189;-65
2020/12/01 01:40:21;;;;;;;6.97;3.50;;;1.00;99.90;;;;;;2081297;28;20612;-64
2020/12/01 01:41:22;;;;;;;6.15;3.90;;;1.10;99.90;;;;;;2080840;28;20181;-64
2020/12/01 01:42:23;;;;;;;5.40;3.33;;;1.10;99.90;;;;;;2081202;28;20184;-64
2020/12/01 01:43:24;;;;;;;5.43;2.90;;;1.10;99.90;;;;;;2081127;28;20254;-64
2020/12/01 01:44:29;;;;;;;4.83;3.07;;;1.10;99.90;;;;;;2081334;28;20187;-65
2020/12/01 01:45:39;;;;;;;6.15;3.30;;;1.10;99.90;;;;;;2088696;28;20191;-64
2020/12/01 01:46:49;;;;;;;6.13;3.22;;;1.10;99.90;;;;;;2087517;28;20188;-64
2020/12/01 01:47:49;;;;;;;5.63;3.35;;;1.10;99.90;;;;;;2081109;28;20611;-64
2020/12/01 01:48:50;;;;;;;5.07;3.23;;;1.20;99.90;;;;;;2080456;28;20255;-64
2020/12/01 01:50:22;;;;;;;6.37;3.10;;;1.20;99.90;;;;;;2072302;28;22131;-64
2020/12/01 01:51:23;;;;;;;5.65;2.58;;;1.20;99.90;;;;;;2080756;28;20216;-64
2020/12/01 01:52:32;;;;;;;4.32;2.72;;;1.20;99.90;;;;;;2080525;28;20206;-64
2020/12/01 01:53:37;;;;;;;4.88;2.90;;;1.20;99.90;;;;;;2073635;28;20177;-64
2020/12/01 01:54:40;;;;;;;5.35;2.95;;;1.20;99.90;;;;;;2072652;28;20805;-64
2020/12/01 01:55:42;;;;;;;5.00;3.10;;;1.30;99.90;;;;;;2072658;28;20261;-64
2020/12/01 01:56:45;;;;;;;5.47;3.20;;;1.30;99.90;;;;;;2080355;28;20249;-65
2020/12/01 01:57:51;;;;;;;6.55;3.50;;;1.30;99.90;;;;;;2079956;28;20288;-64
2020/12/01 01:58:53;;;;;;;5.95;3.35;;;1.30;99.90;;;;;;2072986;28;20202;-64
2020/12/01 01:59:55;;;;;;;5.75;3.40;;;1.30;99.90;;;;;;2072246;28;20279;-64
2020/12/01 02:01:10;;;;;;;7.20;3.55;;;1.30;99.90;;;;;;2072092;28;20232;-65
2020/12/01 02:02:11;;;;;;;7.10;3.33;;;1.30;99.90;;;;;;2080458;28;20180;-64
2020/12/01 02:03:12;;;;;;;6.78;3.53;;;1.30;99.90;;;;;;2080861;28;20271;-64
2020/12/01 02:04:15;;;;;;;6.03;3.50;;;1.30;99.90;;;;;;2080960;28;20185;-64
2020/12/01 02:05:41;;;;;;;9.98;4.53;;;1.40;99.90;;;;;;2080959;28;20196;-64
2020/12/01 02:06:50;;;;;;;16.42;6.53;;;1.30;99.90;;;;;;2076901;28;20199;-64
2020/12/01 02:08:10;;;;;;;18.23;8.45;;;1.40;99.90;;;;;;2080381;28;20179;-64
2020/12/01 02:09:20;;;;;;;27.65;12.73;;;1.40;99.90;;;;;;2080660;28;20184;-64
2020/12/01 02:10:22;;;;;;;45.83;17.95;;;1.40;99.90;;;;;;2080178;28;20316;-64
2020/12/01 02:11:24;;;;;;;30.55;15.30;;;1.30;99.90;;;;;;2072124;28;20185;-64
2020/12/01 02:12:25;;;;;;;36.22;16.73;;;1.30;99.90;;;;;;2072147;28;20628;-64
2020/12/01 02:13:38;;;;;;;37.10;16.40;;;1.30;99.90;;;;;;2080252;28;20193;-65
2020/12/01 02:14:59;;;;;;;40.03;17.40;;;1.30;99.90;;;;;;2080281;28;20230;-65
2020/12/01 02:16:00;;;;;;;35.55;16.52;;;1.10;99.90;;;;;;2074804;28;20174;-65
2020/12/01 02:17:28;;;;;;;36.33;16.80;;;1.10;99.90;;;;;;2080216;28;20169;-65
2020/12/01 02:18:36;;;;;;;32.63;14.90;;;1.10;99.90;;;;;;2080588;28;20226;-64
2020/12/01 02:19:38;;;;;;;36.38;16.38;;;1.00;99.90;;;;;;2080423;28;20181;-65
2020/12/01 02:20:39;;;;;;;34.33;15.88;;;0.90;99.90;;;;;;2080256;28;20181;-64
2020/12/01 02:21:41;;;;;;;32.20;16.20;;;0.90;99.90;;;;;;2084410;28;20654;-65
2020/12/01 02:22:47;;;;;;;38.17;17.90;;;0.80;99.90;;;;;;2087138;28;20204;-64
2020/12/01 02:23:48;;;;;;;28.60;14.43;;;0.80;99.90;;;;;;2084240;28;20206;-64
2020/12/01 02:24:51;;;;;;;32.08;16.15;;;0.80;99.90;;;;;;2085929;28;20177;-64
2020/12/01 02:25:52;;;;;;;31.52;15.60;;;0.80;99.90;;;;;;2087169;28;20184;-64
2020/12/01 02:26:57;;;;;;;29.80;14.70;;;0.70;99.90;;;;;;2083506;28;20208;-63
2020/12/01 02:28:01;;;;;;;27.13;14.07;;;0.60;99.90;;;;;;2081273;28;20181;-64
2020/12/01 02:29:13;;;;;;;31.45;15.15;;;0.60;99.90;;;;;;2081001;28;20661;-64
2020/12/01 02:30:14;;;;;;;28.73;15.00;;;0.60;99.90;;;;;;2080944;28;20224;-64
2020/12/01 02:31:14;;;;;;;34.53;15.90;;;0.60;99.90;;;;;;2080661;28;20611;-62
2020/12/01 02:32:17;;;;;;;33.47;15.13;;;0.60;99.90;;;;;;2081090;28;20197;-63
2020/12/01 02:33:18;;;;;;;31.95;15.65;;;0.60;99.90;;;;;;2080889;28;20295;-64
2020/12/01 02:34:24;;;;;;;33.07;15.20;;;0.60;99.90;;;;;;2087027;28;20188;-65
2020/12/01 02:35:25;;;;;;;30.08;15.15;;;0.70;99.90;;;;;;2086043;28;20168;-65
2020/12/01 02:36:25;;;;;;;27.73;14.37;;;0.70;99.90;;;;;;2086257;28;20210;-65
2020/12/01 02:37:29;;;;;;;39.93;16.50;;;0.60;99.90;;;;;;2084009;28;20189;-64
2020/12/01 02:38:29;;;;;;;39.00;16.05;;;0.70;99.90;;;;;;2081062;28;20204;-64
2020/12/01 02:39:31;;;;;;;30.20;15.67;;;0.70;99.90;;;;;;2080904;28;20215;-63
2020/12/01 02:40:32;;;;;;;38.35;17.13;;;0.70;99.90;;;;;;2080330;28;20248;-64
2020/12/01 02:41:33;;;;;;;27.77;15.07;;;0.80;99.90;;;;;;2079761;28;20702;-62
2020/12/01 02:42:33;;;;;;;35.42;16.40;;;0.80;99.90;;;;;;2080940;28;20267;-63
2020/12/01 02:43:34;;;;;;;30.53;14.90;;;0.80;99.90;;;;;;2080940;28;20189;-63
2020/12/01 02:44:35;;;;;;;31.48;15.88;;;0.80;99.90;;;;;;2081033;28;20184;-62
2020/12/01 02:45:36;;;;;;;37.77;16.97;;;0.80;99.90;;;;;;2080922;28;20191;-64
2020/12/01 02:46:37;;;;;;;29.65;15.35;;;0.80;99.90;;;;;;2080823;28;20180;-64
2020/12/01 02:47:37;;;;;;;38.77;16.23;;;0.80;99.90;;;;;;2080982;28;20196;-65
2020/12/01 02:48:38;;;;;;;36.87;17.03;;;0.80;99.90;;;;;;2080195;28;20717;-62
2020/12/01 02:49:39;;;;;;;35.40;16.47;;;0.80;99.90;;;;;;2080256;28;20247;-64
2020/12/01 02:50:40;;;;;;;31.13;15.60;;;0.80;99.90;;;;;;2080900;28;20189;-65
2020/12/01 02:51:40;;;;;;;32.37;15.40;;;0.80;99.90;;;;;;2080868;28;20187;-64
2020/12/01 02:52:41;;;;;;;32.97;15.23;;;0.80;99.90;;;;;;2080575;28;20294;-64
2020/12/01 02:53:42;;;;;;;28.37;14.33;;;0.70;99.90;;;;;;2080924;28;20254;-65
2020/12/01 02:54:42;;;;;;;38.27;16.63;;;0.70;99.90;;;;;;2080853;28;20177;-63
2020/12/01 02:55:43;;;;;;;36.43;17.20;;;0.70;99.90;;;;;;2080913;28;20169;-64
2020/12/01 02:56:45;;;;;;;38.40;16.70;;;0.70;99.90;;;;;;2080877;28;20176;-64
2020/12/01 02:57:46;;;;;;;30.98;14.43;;;0.70;99.90;;;;;;2080790;28;20755;-64
2020/12/01 02:58:46;;;;;;;35.87;15.10;;;0.70;99.90;;;;;;2080940;28;20193;-65
2020/12/01 02:59:47;;;;;;;34.37;15.43;;;0.70;99.90;;;;;;2080890;28;20193;-62
2020/12/01 03:00:48;;;;;;;35.70;16.43;;;0.80;99.90;;;;;;2080757;28;20565;-65
2020/12/01 03:01:48;;;;;;;31.17;14.50;;;0.80;99.90;;;;;;2088407;28;20229;-63
2020/12/01 03:02:49;;;;;;;31.43;13.87;;;0.90;99.90;;;;;;2088228;28;20200;-64
2020/12/01 03:03:50;;;;;;;24.43;12.93;;;0.90;99.90;;;;;;2080825;28;20175;-64
2020/12/01 03:04:51;;;;;;;24.30;12.67;;;0.90;99.90;;;;;;2080775;28;20178;-65
2020/12/01 03:05:52;;;;;;;20.20;10.10;;;0.90;99.90;;;;;;2080846;28;20177;-65
2020/12/01 03:06:53;;;;;;;21.35;11.38;;;1.00;99.90;;;;;;2080700;28;20539;-63
2020/12/01 03:07:53;;;;;;;20.87;11.17;;;1.00;99.90;;;;;;2078333;28;20213;-64
2020/12/01 03:08:54;;;;;;;22.50;11.60;;;1.10;99.90;;;;;;2080575;28;20562;-64
2020/12/01 03:09:55;;;;;;;27.50;12.47;;;1.10;99.90;;;;;;2080538;28;20274;-64
2020/12/01 03:10:55;;;;;;;29.70;14.07;;;1.10;99.90;;;;;;2080401;28;20288;-65
2020/12/01 03:11:56;;;;;;;28.67;13.93;;;1.10;99.90;;;;;;2080655;28;20292;-65
2020/12/01 03:12:57;;;;;;;26.00;12.97;;;1.20;99.90;;;;;;2080046;28;20279;-65
2020/12/01 03:13:57;;;;;;;30.30;15.97;;;1.20;99.90;;;;;;2079877;28;20359;-64
2020/12/01 03:15:00;;;;;;;37.70;15.53;;;1.20;99.90;;;;;;2080695;28;20181;-64
2020/12/01 03:16:10;;;;;;;52.30;18.83;;;1.20;99.90;;;;;;2080596;28;20204;-65
2020/12/01 03:17:11;;;;;;;34.38;13.95;;;1.30;99.90;;;;;;2080723;28;20263;-65
2020/12/01 03:18:12;;;;;;;26.38;12.50;;;1.20;99.90;;;;;;2080651;28;20184;-64
2020/12/01 03:19:14;;;;;;;19.20;9.07;;;1.20;99.90;;;;;;2080644;28;20176;-65
2020/12/01 03:20:15;;;;;;;19.35;8.95;;;1.20;99.90;;;;;;2079862;28;20204;-65
2020/12/01 03:21:16;;;;;;;15.10;8.13;;;1.20;99.90;;;;;;2079821;28;20195;-65
2020/12/01 03:22:17;;;;;;;18.75;8.45;;;1.20;99.90;;;;;;2080619;28;20284;-63
2020/12/01 03:23:17;;;;;;;13.93;7.67;;;1.20;99.90;;;;;;2080555;28;20232;-63
2020/12/01 03:24:18;;;;;;;16.33;6.73;;;1.20;99.90;;;;;;2080610;28;20211;-64
2020/12/01 03:25:19;;;;;;;20.90;8.37;;;0.70;99.90;;;;;;2080625;28;20598;-64
2020/12/01 03:26:20;;;;;;;16.57;6.93;;;1.20;99.90;;;;;;2080455;28;20668;-65
2020/12/01 03:27:21;;;;;;;19.45;8.88;;;1.20;99.90;;;;;;2080671;28;20185;-65
2020/12/01 03:28:21;;;;;;;15.43;7.90;;;1.20;99.90;;;;;;2080551;28;20662;-63
2020/12/01 03:29:22;;;;;;;16.73;8.13;;;1.20;99.90;;;;;;2088038;28;20185;-64
2020/12/01 03:30:23;;;;;;;17.60;8.33;;;1.20;99.90;;;;;;2087267;28;20203;-64
2020/12/01 03:31:24;;;;;;;18.43;8.93;;;1.30;99.90;;;;;;2080289;28;20226;-64
2020/12/01 03:32:24;;;;;;;18.63;9.07;;;1.20;99.90;;;;;;2080404;28;20260;-65
2020/12/01 03:33:25;;;;;;;17.07;8.67;;;1.20;99.90;;;;;;2080468;28;20181;-63
2020/12/01 03:34:26;;;;;;;22.48;9.23;;;1.10;99.90;;;;;;2079814;28;20646;-63
2020/12/01 03:35:27;;;;;;;17.53;9.57;;;1.10;99.90;;;;;;2079754;28;20181;-64
2020/12/01 03:36:28;;;;;;;19.60;9.88;;;1.10;99.90;;;;;;2080525;28;20184;-64
2020/12/01 03:37:29;;;;;;;18.83;9.33;;;1.10;99.90;;;;;;2080430;28;20558;-65
2020/12/01 03:38:29;;;;;;;27.77;11.40;;;1.10;99.90;;;;;;2080423;28;20177;-65
2020/12/01 03:39:30;;;;;;;23.33;11.13;;;1.10;99.90;;;;;;2080357;28;20191;-64
2020/12/01 03:40:31;;;;;;;26.23;12.20;;;1.00;99.90;;;;;;2079831;28;20176;-65
2020/12/01 03:41:32;;;;;;;26.87;12.17;;;1.00;99.90;;;;;;2079348;28;20218;-65
2020/12/01 03:42:32;;;;;;;24.53;11.60;;;1.00;99.90;;;;;;2080410;28;20260;-65
2020/12/01 03:43:34;;;;;;;23.67;11.63;;;0.90;99.90;;;;;;2079693;28;20188;-65
2020/12/01 03:44:34;;;;;;;21.83;10.82;;;0.90;99.90;;;;;;2079806;28;20286;-65
2020/12/01 03:45:35;;;;;;;22.87;12.70;;;0.80;99.90;;;;;;2080469;28;20196;-64
2020/12/01 03:46:36;;;;;;;21.70;10.27;;;0.80;99.90;;;;;;2080479;28;20263;-65
2020/12/01 03:47:37;;;;;;;27.70;12.73;;;0.80;99.90;;;;;;2080251;28;20181;-65
2020/12/01 03:48:38;;;;;;;27.10;12.10;;;0.80;99.90;;;;;;2080387;28;20200;-64
2020/12/01 03:49:38;;;;;;;25.97;13.60;;;0.70;99.90;;;;;;2080399;28;20189;-65
2020/12/01 03:50:40;;;;;;;26.47;13.30;;;0.80;99.90;;;;;;2080455;28;20188;-64
2020/12/01 03:51:40;;;;;;;34.80;14.27;;;0.70;99.90;;;;;;2080111;28;20207;-64
2020/12/01 03:52:41;;;;;;;32.53;14.13;;;0.70;99.90;;;;;;2080275;28;20258;-64
2020/12/01 03:53:42;;;;;;;31.40;15.07;;;0.60;99.90;;;;;;2080410;28;20210;-64
2020/12/01 03:54:42;;;;;;;29.63;15.33;;;0.60;99.90;;;;;;2080382;28;20185;-66
2020/12/01 03:55:43;;;;;;;27.13;14.13;;;0.60;99.90;;;;;;2080201;28;20173;-64
2020/12/01 03:56:44;;;;;;;27.97;13.90;;;0.50;99.90;;;;;;2080458;28;20608;-65
2020/12/01 03:57:45;;;;;;;23.40;11.83;;;0.50;99.90;;;;;;2080293;28;20176;-64
2020/12/01 03:58:46;;;;;;;27.65;13.88;;;0.40;99.90;;;;;;2080349;28;20184;-63
2020/12/01 03:59:46;;;;;;;25.75;12.73;;;0.40;99.90;;;;;;2080131;28;20208;-64
2020/12/01 04:00:47;;;;;;;29.33;13.90;;;0.40;99.90;;;;;;2080229;28;20231;-65
2020/12/01 04:01:48;;;;;;;29.57;14.33;;;0.50;99.90;;;;;;2080116;28;20268;-64
2020/12/01 04:02:49;;;;;;;28.98;13.32;;;0.50;99.90;;;;;;2080229;28;20196;-64
2020/12/01 04:03:50;;;;;;;25.63;12.97;;;0.50;99.90;;;;;;2079998;28;20208;-65
2020/12/01 04:04:50;;;;;;;29.83;13.00;;;0.60;99.90;;;;;;2080348;28;20539;-64
2020/12/01 04:05:51;;;;;;;29.00;14.40;;;0.60;99.90;;;;;;2080314;28;20187;-65
2020/12/01 04:06:52;;;;;;;34.83;14.80;;;0.70;99.90;;;;;;2080391;28;20230;-65
2020/12/01 04:07:53;;;;;;;27.53;13.73;;;0.70;99.90;;;;;;2080174;28;20605;-64
2020/12/01 04:08:54;;;;;;;20.08;10.70;;;0.70;99.90;;;;;;2080382;28;20251;-64
2020/12/01 04:09:54;;;;;;;22.73;11.00;;;0.80;99.90;;;;;;2080056;28;20597;-64
2020/12/01 04:10:55;;;;;;;15.33;7.50;;;0.80;99.90;;;;;;2079462;28;20200;-65
2020/12/01 04:11:56;;;;;;;11.93;6.27;;;0.90;99.90;;;;;;2079658;28;20185;-63
2020/12/01 04:12:57;;;;;;;11.07;6.43;;;1.00;99.90;;;;;;2080194;28;20192;-64
2020/12/01 04:13:57;;;;;;;12.40;6.50;;;1.00;99.90;;;;;;2080511;28;20183;-65
2020/12/01 04:15:00;;;;;;;11.57;6.33;;;1.20;99.90;;;;;;2080213;28;20182;-64
2020/12/01 04:16:01;;;;;;;13.93;6.00;;;1.20;99.90;;;;;;2080493;28;20188;-64
2020/12/01 04:17:02;;;;;;;8.73;5.20;;;1.30;99.90;;;;;;2080233;28;20234;-63
2020/12/01 04:18:03;;;;;;;9.93;5.77;;;1.30;99.90;;;;;;2080343;28;20173;-65
2020/12/01 04:19:04;;;;;;;12.35;6.45;;;1.30;99.90;;;;;;2080353;28;20638;-64
2020/12/01 04:20:06;;;;;;;11.17;6.50;;;1.40;99.90;;;;;;2080521;28;20185;-65
2020/12/01 04:21:06;;;;;;;9.90;5.78;;;1.40;99.90;;;;;;2079191;28;20177;-62
2020/12/01 04:22:07;;;;;;;12.10;5.80;;;1.40;99.90;;;;;;2079738;28;20216;-65
2020/12/01 04:23:08;;;;;;;12.10;6.50;;;1.50;99.90;;;;;;2080213;28;20274;-64
2020/12/01 04:24:09;;;;;;;8.83;5.30;;;1.50;99.90;;;;;;2080278;28;20272;-65
2020/12/01 04:25:09;;;;;;;11.63;6.13;;;1.50;99.90;;;;;;2080158;28;20181;-62
2020/12/01 04:26:10;;;;;;;9.43;5.23;;;1.50;99.90;;;;;;2080086;28;20188;-64
2020/12/01 04:27:12;;;;;;;9.83;5.10;;;1.50;99.90;;;;;;2080122;28;20268;-65
2020/12/01 04:28:13;;;;;;;6.68;4.43;;;1.60;99.90;;;;;;2079915;28;20191;-64
2020/12/01 04:29:13;;;;;;;8.03;4.23;;;1.60;99.90;;;;;;2080254;28;20216;-64
2020/12/01 04:30:14;;;;;;;6.73;3.67;;;1.60;99.90;;;;;;2080198;28;20269;-65
2020/12/01 04:31:15;;;;;;;6.90;3.17;;;1.60;99.90;;;;;;2080006;28;20578;-65
2020/12/01 04:32:16;;;;;;;5.07;3.38;;;1.60;99.90;;;;;;2080158;28;20180;-64
2020/12/01 04:33:17;;;;;;;3.87;2.80;;;1.70;99.90;;;;;;2079921;28;20203;-65
2020/12/01 04:34:17;;;;;;;3.93;2.03;;;1.70;99.90;;;;;;2080310;28;20396;-65
2020/12/01 04:35:22;;;;;;;2.50;1.90;;;1.70;99.90;;;;;;2080182;28;20272;-65
2020/12/01 04:36:23;;;;;;;1.40;1.30;;;1.80;99.90;;;;;;2080303;28;20179;-64
2020/12/01 04:37:24;;;;;;;2.63;1.70;;;1.80;99.90;;;;;;2080031;28;20191;-64
2020/12/01 04:38:25;;;;;;;1.93;1.47;;;1.90;99.90;;;;;;2080245;28;20198;-64
2020/12/01 04:39:26;;;;;;;3.43;1.93;;;1.90;99.90;;;;;;2080086;28;20181;-64
2020/12/01 04:40:34;;;;;;;4.43;2.57;;;1.90;99.90;;;;;;2079607;28;20431;-64
2020/12/01 04:41:35;;;;;;;2.28;2.05;;;1.90;99.90;;;;;;2072326;28;20177;-65
2020/12/01 04:42:49;;;;;;;3.77;2.07;;;1.90;99.90;;;;;;2080568;28;20711;-65
2020/12/01 04:43:56;;;;;;;4.65;1.60;;;1.90;99.90;;;;;;2081108;28;20652;-64
2020/12/01 04:45:04;;;;;;;3.08;1.50;;;1.90;99.90;;;;;;2073890;28;20268;-65
2020/12/01 04:46:14;;;;;;;1.90;1.50;;;2.00;99.90;;;;;;2081280;28;20168;-65
2020/12/01 04:47:22;;;;;;;3.55;1.45;;;2.00;99.90;;;;;;2081176;28;20224;-66
2020/12/01 04:48:35;;;;;;;1.60;1.50;;;2.00;99.90;;;;;;2073873;28;20162;-64
2020/12/01 04:49:42;;;;;;;3.38;1.48;;;2.00;99.90;;;;;;2081341;28;20173;-64
2020/12/01 04:50:51;;;;;;;3.03;1.52;;;1.90;99.90;;;;;;2081192;28;20179;-65
2020/12/01 04:51:54;;;;;;;1.98;1.77;;;1.90;99.90;;;;;;2074371;28;20225;-65
2020/12/01 04:53:35;;;;;;;1.90;1.60;;;1.90;99.90;;;;;;2081369;28;20200;-65
2020/12/01 04:55:02;;;;;;;1.67;1.50;;;1.90;99.90;;;;;;2081767;28;20614;-65
2020/12/01 04:56:40;;;;;;;1.90;1.70;;;1.90;99.90;;;;;;2081285;28;20173;-65
2020/12/01 04:58:12;;;;;;;3.70;2.70;;;1.80;99.90;;;;;;2081528;28;20181;-64
2020/12/01 04:59:23;;;;;;;13.02;8.35;;;1.90;99.90;;;;;;2081469;28;20178;-65
2020/12/01 05:00:58;;;;;;;10.23;6.00;;;1.90;99.90;;;;;;2072824;28;20204;-65
2020/12/01 05:02:38;;;;;;;4.03;2.75;;;1.90;99.90;;;;;;2073588;28;20173;-65
2020/12/01 05:04:00;;;;;;;3.67;3.00;;;1.90;99.90;;;;;;2077977;28;20176;-65
2020/12/01 05:05:43;;;;;;;3.78;2.47;;;1.90;99.90;;;;;;2075634;28;20644;-65
2020/12/01 05:07:29;;;;;;;4.05;2.15;;;1.90;99.90;;;;;;2078431;28;20246;-65
2020/12/01 05:09:09;;;;;;;2.78;1.90;;;1.90;99.90;;;;;;2079754;28;20590;-65
2020/12/01 05:10:13;;;;;;;2.45;1.70;;;1.90;99.90;;;;;;2079422;28;20545;-65
2020/12/01 05:11:41;;;;;;;2.13;1.38;;;1.80;99.90;;;;;;2080415;28;20177;-65
2020/12/01 05:12:54;;;;;;;1.92;1.30;;;1.80;99.90;;;;;;2080644;28;20536;-65
2020/12/01 05:14:37;;;;;;;1.50;1.40;;;1.70;99.90;;;;;;2081077;28;20188;-65
2020/12/01 05:15:41;;;;;;;1.95;1.10;;;1.60;99.90;;;;;;2081468;28;20164;-65
2020/12/01 05:17:02;;;;;;;2.75;1.70;;;1.60;99.90;;;;;;2081406;28;20635;-65
2020/12/01 05:18:19;;;;;;;2.25;1.50;;;1.70;99.90;;;;;;2081503;28;20160;-65
2020/12/01 05:19:40;;;;;;;2.10;1.50;;;1.60;99.90;;;;;;2081404;28;20611;-65
2020/12/01 05:20:51;;;;;;;2.75;1.60;;;1.60;99.90;;;;;;2081406;28;20559;-65
2020/12/01 05:21:52;;;;;;;3.45;1.65;;;1.50;99.90;;;;;;2081433;28;20175;-65
2020/12/01 05:22:58;;;;;;;2.13;1.70;;;1.50;99.90;;;;;;2081174;28;20210;-65
2020/12/01 05:23:58;;;;;;;2.13;1.58;;;1.60;99.90;;;;;;2080961;28;20181;-65
2020/12/01 05:25:01;;;;;;;2.87;2.10;;;1.60;99.90;;;;;;2080739;28;20532;-65
2020/12/01 05:26:06;;;;;;;2.47;1.80;;;1.60;99.90;;;;;;2081481;28;20203;-65
2020/12/01 05:27:21;;;;;;;2.42;1.60;;;1.60;99.90;;;;;;2081169;28;20557;-65
2020/12/01 05:28:21;;;;;;;1.30;1.20;;;1.60;99.90;;;;;;2081577;28;20183;-65
2020/12/01 05:29:25;;;;;;;1.40;1.03;;;1.60;99.90;;;;;;2081298;28;20300;-65
2020/12/01 05:30:25;;;;;;;1.38;1.27;;;1.60;99.90;;;;;;2081422;28;20215;-65
2020/12/01 05:31:39;;;;;;;1.83;1.40;;;1.60;99.90;;;;;;2081102;28;20202;-65